createdAt,value
2017-11-13T00:00:07.603Z,1002.24
2017-11-13T00:01:07.579Z,1002.30
2017-11-13T00:02:07.547Z,1002.29
2017-11-13T00:03:07.518Z,1002.33
2017-11-13T00:04:07.498Z,1002.36
2017-11-13T00:05:07.758Z,1002.36
2017-11-13T00:06:07.446Z,1002.34
2017-11-13T00:07:07.402Z,1002.33
2017-11-13T00:08:07.371Z,1002.31
2017-11-13T00:09:07.341Z,1002.42
2017-11-13T00:10:07.307Z,1002.41
2017-11-13T00:11:07.529Z,1002.50
2017-11-13T00:12:07.248Z,1002.46
2017-11-13T00:13:07.226Z,1002.50
2017-11-13T00:14:07.189Z,1002.42
2017-11-13T00:15:07.158Z,1002.49
2017-11-13T00:16:07.132Z,1002.46
2017-11-13T00:17:07.609Z,1002.53
2017-11-13T00:18:07.072Z,1002.51
2017-11-13T00:19:07.043Z,1002.57
2017-11-13T00:20:07.023Z,1002.62
2017-11-13T00:21:06.985Z,1002.57
2017-11-13T00:22:06.959Z,1002.61
2017-11-13T00:23:06.924Z,1002.60
2017-11-13T00:24:06.895Z,1002.67
2017-11-13T00:25:06.869Z,1002.66
2017-11-13T00:26:06.835Z,1002.68
2017-11-13T00:27:06.801Z,1002.71
2017-11-13T00:28:06.772Z,1002.65
2017-11-13T00:29:06.995Z,1002.65
2017-11-13T00:30:06.721Z,1002.61
2017-11-13T00:31:06.701Z,1002.67
2017-11-13T00:32:06.661Z,1002.65
2017-11-13T00:33:06.626Z,1002.67
2017-11-13T00:34:06.593Z,1002.65
2017-11-13T00:35:06.571Z,1002.70
2017-11-13T00:36:06.542Z,1002.65
2017-11-13T00:37:06.508Z,1002.69
2017-11-13T00:38:06.475Z,1002.70
2017-11-13T00:39:06.460Z,1002.71
2017-11-13T00:40:06.423Z,1002.73
2017-11-13T00:41:06.393Z,1002.70
2017-11-13T00:42:06.360Z,1002.68
2017-11-13T00:43:06.336Z,1002.78
2017-11-13T00:44:06.306Z,1002.75
2017-11-13T00:45:06.570Z,1002.77
2017-11-13T00:46:06.241Z,1002.79
2017-11-13T00:47:06.213Z,1002.79
2017-11-13T00:48:06.181Z,1002.81
2017-11-13T00:49:06.171Z,1002.78
2017-11-13T00:50:06.119Z,1002.77
2017-11-13T00:51:06.439Z,1002.79
2017-11-13T00:52:06.067Z,1002.86
2017-11-13T00:53:06.053Z,1002.86
2017-11-13T00:54:06.003Z,1002.85
2017-11-13T00:55:05.989Z,1002.87
2017-11-13T00:56:05.943Z,1002.84
2017-11-13T00:57:05.919Z,1002.85
2017-11-13T00:58:05.885Z,1002.83
2017-11-13T00:59:05.853Z,1002.84
2017-11-13T01:00:05.824Z,1002.85
2017-11-13T01:01:05.789Z,1002.87
2017-11-13T01:02:05.768Z,1002.88
2017-11-13T01:03:05.982Z,1002.86
2017-11-13T01:04:05.711Z,1002.92
2017-11-13T01:05:05.672Z,1002.94
2017-11-13T01:06:05.646Z,1002.93
2017-11-13T01:07:05.621Z,1003.05
2017-11-13T01:08:05.583Z,1003.01
2017-11-13T01:09:05.907Z,1003.05
2017-11-13T01:10:05.525Z,1003.08
2017-11-13T01:11:05.501Z,1003.13
2017-11-13T01:12:05.474Z,1003.08
2017-11-13T01:13:05.454Z,1003.09
2017-11-13T01:14:05.418Z,1003.15
2017-11-13T01:15:05.382Z,1003.11
2017-11-13T01:16:05.354Z,1003.16
2017-11-13T01:17:05.321Z,1003.19
2017-11-13T01:18:05.290Z,1003.18
2017-11-13T01:19:05.263Z,1003.19
2017-11-13T01:20:05.232Z,1003.27
2017-11-13T01:21:05.201Z,1003.25
2017-11-13T01:22:05.172Z,1003.21
2017-11-13T01:23:05.141Z,1003.25
2017-11-13T01:24:05.116Z,1003.30
2017-11-13T01:25:05.087Z,1003.23
2017-11-13T01:26:05.055Z,1003.29
2017-11-13T01:27:05.323Z,1003.34
2017-11-13T01:28:04.998Z,1003.36
2017-11-13T01:29:04.964Z,1003.39
2017-11-13T01:30:04.938Z,1003.34
2017-11-13T01:31:04.910Z,1003.34
2017-11-13T01:32:04.872Z,1003.38
2017-11-13T01:33:05.101Z,1003.42
2017-11-13T01:34:04.822Z,1003.37
2017-11-13T01:35:04.787Z,1003.36
2017-11-13T01:36:04.760Z,1003.31
2017-11-13T01:37:04.733Z,1003.35
2017-11-13T01:38:04.695Z,1003.34
2017-11-13T01:39:04.671Z,1003.33
2017-11-13T01:40:04.640Z,1003.38
2017-11-13T01:41:04.618Z,1003.37
2017-11-13T01:42:04.579Z,1003.41
2017-11-13T01:43:04.548Z,1003.44
2017-11-13T01:44:04.517Z,1003.43
2017-11-13T01:45:04.742Z,1003.44
2017-11-13T01:46:04.457Z,1003.46
2017-11-13T01:47:04.430Z,1003.45
2017-11-13T01:48:04.405Z,1003.49
2017-11-13T01:49:04.373Z,1003.50
2017-11-13T01:50:04.346Z,1003.49
2017-11-13T01:51:04.318Z,1003.49
2017-11-13T01:52:04.291Z,1003.52
2017-11-13T01:53:04.254Z,1003.49
2017-11-13T01:54:04.226Z,1003.56
2017-11-13T01:55:04.194Z,1003.54
2017-11-13T01:56:04.170Z,1003.56
2017-11-13T01:57:04.137Z,1003.52
2017-11-13T01:58:04.113Z,1003.54
2017-11-13T01:59:04.086Z,1003.51
2017-11-13T02:00:04.055Z,1003.49
2017-11-13T02:01:04.017Z,1003.48
2017-11-13T02:02:03.983Z,1003.56
2017-11-13T02:03:03.956Z,1003.55
2017-11-13T02:04:03.935Z,1003.60
2017-11-13T02:05:03.907Z,1003.67
2017-11-13T02:06:03.867Z,1003.67
2017-11-13T02:07:03.842Z,1003.65
2017-11-13T02:08:03.816Z,1003.69
2017-11-13T02:09:04.080Z,1003.70
2017-11-13T02:10:03.760Z,1003.67
2017-11-13T02:11:03.718Z,1003.72
2017-11-13T02:12:03.689Z,1003.72
2017-11-13T02:13:03.662Z,1003.74
2017-11-13T02:14:03.632Z,1003.80
2017-11-13T02:15:03.605Z,1003.78
2017-11-13T02:16:03.568Z,1003.78
2017-11-13T02:17:03.551Z,1003.83
2017-11-13T02:18:03.515Z,1003.84
2017-11-13T02:19:03.736Z,1003.88
2017-11-13T02:20:03.448Z,1003.90
2017-11-13T02:21:03.420Z,1003.94
2017-11-13T02:22:03.397Z,1003.94
2017-11-13T02:23:03.364Z,1003.94
2017-11-13T02:24:03.337Z,1003.92
2017-11-13T02:25:03.309Z,1003.92
2017-11-13T02:26:03.276Z,1003.95
2017-11-13T02:27:03.245Z,1003.90
2017-11-13T02:28:03.214Z,1003.97
2017-11-13T02:29:03.191Z,1003.99
2017-11-13T02:30:03.160Z,1003.99
2017-11-13T02:31:03.134Z,1004.03
2017-11-13T02:32:03.095Z,1004.03
2017-11-13T02:33:03.077Z,1004.05
2017-11-13T02:34:03.044Z,1004.10
2017-11-13T02:35:03.011Z,1004.08
2017-11-13T02:36:02.979Z,1004.14
2017-11-13T02:37:02.947Z,1004.12
2017-11-13T02:38:02.921Z,1004.17
2017-11-13T02:39:03.156Z,1004.22
2017-11-13T02:40:02.857Z,1004.25
2017-11-13T02:41:02.832Z,1004.21
2017-11-13T02:42:02.804Z,1004.27
2017-11-13T02:43:03.123Z,1004.28
2017-11-13T02:44:02.751Z,1004.33
2017-11-13T02:45:02.719Z,1004.34
2017-11-13T02:46:02.683Z,1004.41
2017-11-13T02:47:02.650Z,1004.44
2017-11-13T02:48:02.626Z,1004.42
2017-11-13T02:49:02.595Z,1004.48
2017-11-13T02:50:02.566Z,1004.52
2017-11-13T02:51:02.534Z,1004.57
2017-11-13T02:52:02.505Z,1004.61
2017-11-13T02:53:02.472Z,1004.64
2017-11-13T02:54:02.451Z,1004.64
2017-11-13T02:55:02.673Z,1004.69
2017-11-13T02:56:02.388Z,1004.72
2017-11-13T02:57:02.357Z,1004.70
2017-11-13T02:58:02.330Z,1004.77
2017-11-13T02:59:02.305Z,1004.73
2017-11-13T03:00:02.264Z,1004.77
2017-11-13T03:01:02.239Z,1004.80
2017-11-13T03:02:02.213Z,1004.86
2017-11-13T03:03:02.180Z,1004.87
2017-11-13T03:04:02.146Z,1004.91
2017-11-13T03:05:02.121Z,1004.95
2017-11-13T03:06:02.091Z,1004.88
2017-11-13T03:07:02.066Z,1004.92
2017-11-13T03:08:02.026Z,1004.92
2017-11-13T03:09:01.999Z,1004.96
2017-11-13T03:10:01.974Z,1004.99
2017-11-13T03:11:01.947Z,1005.01
2017-11-13T03:12:01.915Z,1005.02
2017-11-13T03:13:02.131Z,1005.01
2017-11-13T03:14:01.852Z,1005.00
2017-11-13T03:15:01.820Z,1005.06
2017-11-13T03:16:01.791Z,1005.05
2017-11-13T03:17:01.760Z,1005.09
2017-11-13T03:18:01.732Z,1005.04
2017-11-13T03:19:02.003Z,1005.08
2017-11-13T03:20:01.672Z,1005.08
2017-11-13T03:21:01.643Z,1005.09
2017-11-13T03:22:01.616Z,1005.11
2017-11-13T03:23:01.582Z,1005.20
2017-11-13T03:24:01.550Z,1005.20
2017-11-13T03:25:01.786Z,1005.22
2017-11-13T03:26:01.496Z,1005.29
2017-11-13T03:27:01.465Z,1005.29
2017-11-13T03:28:01.435Z,1005.28
2017-11-13T03:29:01.410Z,1005.29
2017-11-13T03:30:01.383Z,1005.29
2017-11-13T03:31:01.600Z,1005.34
2017-11-13T03:32:01.313Z,1005.36
2017-11-13T03:33:01.279Z,1005.37
2017-11-13T03:34:01.256Z,1005.36
2017-11-13T03:35:01.218Z,1005.36
2017-11-13T03:36:01.196Z,1005.36
2017-11-13T03:37:01.168Z,1005.42
2017-11-13T03:38:01.131Z,1005.46
2017-11-13T03:39:01.098Z,1005.49
2017-11-13T03:40:01.076Z,1005.50
2017-11-13T03:41:01.043Z,1005.49
2017-11-13T03:42:01.019Z,1005.51
2017-11-13T03:43:00.977Z,1005.50
2017-11-13T03:44:00.950Z,1005.52
2017-11-13T03:45:00.917Z,1005.55
2017-11-13T03:46:00.886Z,1005.53
2017-11-13T03:47:00.858Z,1005.52
2017-11-13T03:48:01.078Z,1005.56
2017-11-13T03:49:00.798Z,1005.58
2017-11-13T03:50:00.763Z,1005.54
2017-11-13T03:51:00.740Z,1005.64
2017-11-13T03:52:00.709Z,1005.62
2017-11-13T03:53:00.678Z,1005.60
2017-11-13T03:54:00.651Z,1005.60
2017-11-13T03:55:00.617Z,1005.62
2017-11-13T03:56:00.585Z,1005.68
2017-11-13T03:57:00.561Z,1005.65
2017-11-13T03:58:00.521Z,1005.70
2017-11-13T03:59:00.497Z,1005.76
2017-11-13T04:00:00.768Z,1005.77
2017-11-13T04:01:00.430Z,1005.76
2017-11-13T04:02:00.397Z,1005.80
2017-11-13T04:03:00.381Z,1005.80
2017-11-13T04:04:00.340Z,1005.80
2017-11-13T04:05:00.311Z,1005.81
2017-11-13T04:06:00.528Z,1005.86
2017-11-13T04:07:00.253Z,1005.88
2017-11-13T04:08:00.220Z,1005.89
2017-11-13T04:09:00.186Z,1005.89
2017-11-13T04:10:00.162Z,1005.93
2017-11-13T04:11:00.135Z,1005.92
2017-11-13T04:12:00.109Z,1005.93
2017-11-13T04:13:00.068Z,1005.94
2017-11-13T04:14:00.042Z,1005.96
2017-11-13T04:15:00.002Z,1005.95
2017-11-13T04:15:59.977Z,1005.97
2017-11-13T04:16:59.952Z,1006.03
2017-11-13T04:17:59.923Z,1006.04
2017-11-13T04:18:59.889Z,1006.02
2017-11-13T04:19:59.852Z,1006.03
2017-11-13T04:20:59.826Z,1006.04
2017-11-13T04:21:59.791Z,1006.02
2017-11-13T04:22:59.762Z,1006.05
2017-11-13T04:24:00.593Z,1006.06
2017-11-13T04:24:59.705Z,1006.10
2017-11-13T04:25:59.670Z,1006.08
2017-11-13T04:26:59.648Z,1006.12
2017-11-13T04:27:59.619Z,1006.17
2017-11-13T04:28:59.580Z,1006.08
2017-11-13T04:29:59.552Z,1006.16
2017-11-13T04:30:59.524Z,1006.15
2017-11-13T04:31:59.489Z,1006.18
2017-11-13T04:32:59.468Z,1006.23
2017-11-13T04:33:59.430Z,1006.27
2017-11-13T04:34:59.400Z,1006.30
2017-11-13T04:35:59.367Z,1006.31
2017-11-13T04:36:59.336Z,1006.29
2017-11-13T04:37:59.306Z,1006.33
2017-11-13T04:38:59.272Z,1006.39
2017-11-13T04:39:59.244Z,1006.40
2017-11-13T04:40:59.463Z,1006.40
2017-11-13T04:41:59.184Z,1006.45
2017-11-13T04:42:59.152Z,1006.50
2017-11-13T04:43:59.133Z,1006.54
2017-11-13T04:44:59.096Z,1006.58
2017-11-13T04:45:59.069Z,1006.57
2017-11-13T04:46:59.394Z,1006.58
2017-11-13T04:47:59.000Z,1006.60
2017-11-13T04:48:58.972Z,1006.65
2017-11-13T04:49:58.941Z,1006.59
2017-11-13T04:50:58.910Z,1006.61
2017-11-13T04:51:58.886Z,1006.63
2017-11-13T04:52:59.099Z,1006.66
2017-11-13T04:53:58.817Z,1006.66
2017-11-13T04:54:58.795Z,1006.68
2017-11-13T04:55:58.755Z,1006.69
2017-11-13T04:56:58.720Z,1006.75
2017-11-13T04:57:58.705Z,1006.75
2017-11-13T04:58:58.676Z,1006.83
2017-11-13T04:59:58.635Z,1006.81
2017-11-13T05:00:58.602Z,1006.87
2017-11-13T05:01:58.574Z,1006.89
2017-11-13T05:02:58.539Z,1006.90
2017-11-13T05:03:58.511Z,1006.92
2017-11-13T05:04:58.483Z,1006.98
2017-11-13T05:05:58.465Z,1007.00
2017-11-13T05:06:58.420Z,1006.98
2017-11-13T05:07:58.389Z,1007.02
2017-11-13T05:08:58.356Z,1006.97
2017-11-13T05:09:58.327Z,1007.01
2017-11-13T05:10:58.542Z,1006.98
2017-11-13T05:11:58.261Z,1007.04
2017-11-13T05:12:58.231Z,1007.02
2017-11-13T05:13:58.211Z,1007.01
2017-11-13T05:14:58.175Z,1007.06
2017-11-13T05:15:58.147Z,1007.05
2017-11-13T05:16:58.106Z,1007.08
2017-11-13T05:17:58.080Z,1007.10
2017-11-13T05:18:58.046Z,1007.10
2017-11-13T05:19:58.017Z,1007.11
2017-11-13T05:20:57.995Z,1007.08
2017-11-13T05:21:57.963Z,1007.15
2017-11-13T05:22:58.170Z,1007.13
2017-11-13T05:23:57.896Z,1007.19
2017-11-13T05:24:57.865Z,1007.19
2017-11-13T05:25:57.827Z,1007.18
2017-11-13T05:26:57.800Z,1007.26
2017-11-13T05:27:57.764Z,1007.25
2017-11-13T05:28:57.736Z,1007.27
2017-11-13T05:29:57.709Z,1007.31
2017-11-13T05:30:57.674Z,1007.34
2017-11-13T05:31:57.652Z,1007.39
2017-11-13T05:32:57.613Z,1007.40
2017-11-13T05:33:57.834Z,1007.44
2017-11-13T05:34:57.552Z,1007.46
2017-11-13T05:35:57.525Z,1007.48
2017-11-13T05:36:57.489Z,1007.52
2017-11-13T05:37:57.457Z,1007.56
2017-11-13T05:38:57.422Z,1007.60
2017-11-13T05:39:57.393Z,1007.65
2017-11-13T05:40:57.373Z,1007.69
2017-11-13T05:41:57.336Z,1007.71
2017-11-13T05:42:57.305Z,1007.73
2017-11-13T05:43:57.275Z,1007.73
2017-11-13T05:44:57.245Z,1007.74
2017-11-13T05:45:57.508Z,1007.75
2017-11-13T05:46:57.181Z,1007.78
2017-11-13T05:47:57.169Z,1007.79
2017-11-13T05:48:57.116Z,1007.79
2017-11-13T05:49:57.081Z,1007.88
2017-11-13T05:50:57.055Z,1007.84
2017-11-13T05:51:57.334Z,1007.87
2017-11-13T05:52:56.988Z,1007.87
2017-11-13T05:53:56.963Z,1007.86
2017-11-13T05:54:56.932Z,1007.89
2017-11-13T05:55:56.894Z,1007.88
2017-11-13T05:56:56.865Z,1007.94
2017-11-13T05:57:56.832Z,1007.95
2017-11-13T05:58:56.810Z,1007.96
2017-11-13T05:59:56.778Z,1007.99
2017-11-13T06:00:56.740Z,1008.01
2017-11-13T06:01:56.710Z,1008.02
2017-11-13T06:02:56.679Z,1007.99
2017-11-13T06:03:56.652Z,1008.02
2017-11-13T06:04:56.613Z,1008.02
2017-11-13T06:05:56.587Z,1008.01
2017-11-13T06:06:56.554Z,1008.05
2017-11-13T06:07:56.519Z,1008.02
2017-11-13T06:08:56.739Z,1008.04
2017-11-13T06:09:56.463Z,1008.04
2017-11-13T06:10:56.434Z,1008.10
2017-11-13T06:11:56.397Z,1008.13
2017-11-13T06:12:56.366Z,1008.13
2017-11-13T06:13:56.341Z,1008.15
2017-11-13T06:14:56.552Z,1008.15
2017-11-13T06:15:56.272Z,1008.17
2017-11-13T06:16:56.240Z,1008.14
2017-11-13T06:17:56.217Z,1008.17
2017-11-13T06:18:56.184Z,1008.17
2017-11-13T06:19:56.146Z,1008.21
2017-11-13T06:20:56.113Z,1008.18
2017-11-13T06:21:56.082Z,1008.21
2017-11-13T06:22:56.058Z,1008.32
2017-11-13T06:23:56.020Z,1008.32
2017-11-13T06:24:55.993Z,1008.34
2017-11-13T06:25:55.969Z,1008.40
2017-11-13T06:26:56.178Z,1008.45
2017-11-13T06:27:55.899Z,1008.53
2017-11-13T06:28:55.869Z,1008.47
2017-11-13T06:29:55.833Z,1008.50
2017-11-13T06:30:55.801Z,1008.43
2017-11-13T06:31:55.774Z,1008.55
2017-11-13T06:32:55.752Z,1008.52
2017-11-13T06:33:55.705Z,1008.56
2017-11-13T06:34:55.674Z,1008.55
2017-11-13T06:35:55.647Z,1008.57
2017-11-13T06:36:55.612Z,1008.60
2017-11-13T06:37:55.589Z,1008.67
2017-11-13T06:38:55.560Z,1008.61
2017-11-13T06:39:55.520Z,1008.65
2017-11-13T06:40:55.485Z,1008.64
2017-11-13T06:41:55.465Z,1008.70
2017-11-13T06:42:55.426Z,1008.71
2017-11-13T06:43:55.397Z,1008.72
2017-11-13T06:44:55.614Z,1008.72
2017-11-13T06:45:55.353Z,1008.78
2017-11-13T06:46:55.326Z,1008.77
2017-11-13T06:47:55.266Z,1008.81
2017-11-13T06:48:55.235Z,1008.83
2017-11-13T06:49:55.210Z,1008.85
2017-11-13T06:50:55.174Z,1008.78
2017-11-13T06:51:55.143Z,1008.86
2017-11-13T06:52:55.108Z,1008.96
2017-11-13T06:53:55.080Z,1009.00
2017-11-13T06:54:55.060Z,1009.01
2017-11-13T06:55:55.018Z,1009.01
2017-11-13T06:56:54.986Z,1009.00
2017-11-13T06:57:54.959Z,1009.09
2017-11-13T06:58:54.921Z,1009.07
2017-11-13T06:59:54.893Z,1009.14
2017-11-13T07:00:54.859Z,1009.16
2017-11-13T07:01:54.840Z,1009.23
2017-11-13T07:02:55.201Z,1009.17
2017-11-13T07:03:54.767Z,1009.23
2017-11-13T07:04:54.740Z,1009.29
2017-11-13T07:05:54.707Z,1009.29
2017-11-13T07:06:54.678Z,1009.36
2017-11-13T07:07:54.645Z,1009.41
2017-11-13T07:08:54.618Z,1009.38
2017-11-13T07:09:54.587Z,1009.41
2017-11-13T07:10:54.552Z,1009.44
2017-11-13T07:11:54.525Z,1009.39
2017-11-13T07:12:54.748Z,1009.44
2017-11-13T07:13:54.458Z,1009.48
2017-11-13T07:14:54.433Z,1009.50
2017-11-13T07:15:54.395Z,1009.45
2017-11-13T07:16:54.371Z,1009.43
2017-11-13T07:17:54.342Z,1009.50
2017-11-13T07:18:54.305Z,1009.47
2017-11-13T07:19:54.285Z,1009.47
2017-11-13T07:20:54.250Z,1009.58
2017-11-13T07:21:54.217Z,1009.57
2017-11-13T07:22:54.183Z,1009.52
2017-11-13T07:23:54.158Z,1009.57
2017-11-13T07:24:54.123Z,1009.67
2017-11-13T07:25:54.099Z,1009.68
2017-11-13T07:26:54.065Z,1009.74
2017-11-13T07:27:54.035Z,1009.76
2017-11-13T07:28:54.013Z,1009.78
2017-11-13T07:29:53.988Z,1009.84
2017-11-13T07:30:53.944Z,1009.82
2017-11-13T07:31:53.916Z,1009.85
2017-11-13T07:32:53.889Z,1009.91
2017-11-13T07:33:53.866Z,1009.96
2017-11-13T07:34:53.828Z,1010.04
2017-11-13T07:35:53.796Z,1010.08
2017-11-13T07:36:53.770Z,1010.07
2017-11-13T07:37:53.737Z,1010.11
2017-11-13T07:38:53.713Z,1010.15
2017-11-13T07:39:53.691Z,1010.15
2017-11-13T07:40:53.649Z,1010.20
2017-11-13T07:41:53.623Z,1010.16
2017-11-13T07:42:53.589Z,1010.19
2017-11-13T07:43:53.562Z,1010.22
2017-11-13T07:44:53.531Z,1010.30
2017-11-13T07:45:53.509Z,1010.21
2017-11-13T07:46:53.480Z,1010.14
2017-11-13T07:47:53.450Z,1010.19
2017-11-13T07:48:53.419Z,1010.21
2017-11-13T07:49:53.393Z,1010.22
2017-11-13T07:50:53.356Z,1010.30
2017-11-13T07:51:53.338Z,1010.32
2017-11-13T07:52:53.305Z,1010.37
2017-11-13T07:53:53.277Z,1010.36
2017-11-13T07:54:53.543Z,1010.31
2017-11-13T07:55:53.215Z,1010.30
2017-11-13T07:56:53.206Z,1010.28
2017-11-13T07:57:53.159Z,1010.29
2017-11-13T07:58:53.138Z,1010.26
2017-11-13T07:59:53.104Z,1010.25
2017-11-13T08:00:53.075Z,1010.17
2017-11-13T08:01:53.049Z,1010.23
2017-11-13T08:02:53.020Z,1010.24
2017-11-13T08:03:52.999Z,1010.16
2017-11-13T08:04:52.966Z,1010.18
2017-11-13T08:05:52.934Z,1010.22
2017-11-13T08:06:53.008Z,1010.14
2017-11-13T08:07:52.887Z,1010.22
2017-11-13T08:08:52.845Z,1010.21
2017-11-13T08:09:52.828Z,1010.23
2017-11-13T08:10:52.796Z,1010.26
2017-11-13T08:11:52.766Z,1010.28
2017-11-13T08:12:52.983Z,1010.23
2017-11-13T08:13:52.708Z,1010.30
2017-11-13T08:14:52.677Z,1010.32
2017-11-13T08:15:52.651Z,1010.32
2017-11-13T08:16:52.639Z,1010.31
2017-11-13T08:17:52.596Z,1010.28
2017-11-13T08:18:52.819Z,1010.30
2017-11-13T08:19:52.542Z,1010.35
2017-11-13T08:20:52.514Z,1010.38
2017-11-13T08:21:52.502Z,1010.38
2017-11-13T08:22:52.459Z,1010.37
2017-11-13T08:23:52.428Z,1010.38
2017-11-13T08:24:52.406Z,1010.43
2017-11-13T08:25:52.374Z,1010.44
2017-11-13T08:26:52.346Z,1010.47
2017-11-13T08:27:52.322Z,1010.51
2017-11-13T08:28:52.297Z,1010.52
2017-11-13T08:29:52.266Z,1010.51
2017-11-13T08:30:52.248Z,1010.51
2017-11-13T08:31:52.218Z,1010.49
2017-11-13T08:32:52.186Z,1010.51
2017-11-13T08:33:52.160Z,1010.50
2017-11-13T08:34:52.134Z,1010.49
2017-11-13T08:35:52.408Z,1010.55
2017-11-13T08:36:52.078Z,1010.61
2017-11-13T08:37:52.049Z,1010.63
2017-11-13T08:38:52.019Z,1010.61
2017-11-13T08:39:51.996Z,1010.68
2017-11-13T08:40:51.976Z,1010.69
2017-11-13T08:41:51.941Z,1010.65
2017-11-13T08:42:51.914Z,1010.66
2017-11-13T08:43:51.895Z,1010.73
2017-11-13T08:44:51.867Z,1010.81
2017-11-13T08:45:51.837Z,1010.78
2017-11-13T08:46:51.816Z,1010.81
2017-11-13T08:47:51.781Z,1010.89
2017-11-13T08:48:51.757Z,1010.87
2017-11-13T08:49:51.725Z,1010.89
2017-11-13T08:50:51.713Z,1010.90
2017-11-13T08:51:51.679Z,1010.96
2017-11-13T08:52:51.649Z,1010.99
2017-11-13T08:53:51.628Z,1010.99
2017-11-13T08:54:51.594Z,1011.04
2017-11-13T08:55:51.574Z,1011.06
2017-11-13T08:56:51.550Z,1011.08
2017-11-13T08:57:51.520Z,1011.07
2017-11-13T08:58:51.504Z,1011.09
2017-11-13T08:59:51.471Z,1011.07
2017-11-13T09:00:51.455Z,1011.09
2017-11-13T09:01:51.419Z,1011.07
2017-11-13T09:02:51.401Z,1011.08
2017-11-13T09:03:51.368Z,1011.10
2017-11-13T09:04:51.353Z,1011.09
2017-11-13T09:05:51.316Z,1011.09
2017-11-13T09:06:51.295Z,1011.15
2017-11-13T09:07:51.268Z,1011.13
2017-11-13T09:08:51.268Z,1011.17
2017-11-13T09:09:51.211Z,1011.18
2017-11-13T09:10:51.201Z,1011.20
2017-11-13T09:11:51.164Z,1011.23
2017-11-13T09:12:51.136Z,1011.27
2017-11-13T09:13:51.116Z,1011.29
2017-11-13T09:14:51.095Z,1011.33
2017-11-13T09:15:51.059Z,1011.27
2017-11-13T09:16:51.040Z,1011.31
2017-11-13T09:17:51.014Z,1011.29
2017-11-13T09:18:50.989Z,1011.33
2017-11-13T09:19:50.970Z,1011.33
2017-11-13T09:20:50.942Z,1011.37
2017-11-13T09:21:50.923Z,1011.35
2017-11-13T09:22:50.897Z,1011.32
2017-11-13T09:23:50.863Z,1011.38
2017-11-13T09:24:50.843Z,1011.38
2017-11-13T09:25:50.822Z,1011.41
2017-11-13T09:26:50.790Z,1011.39
2017-11-13T09:27:50.764Z,1011.38
2017-11-13T09:28:50.742Z,1011.38
2017-11-13T09:29:50.723Z,1011.36
2017-11-13T09:30:50.689Z,1011.40
2017-11-13T09:31:50.673Z,1011.38
2017-11-13T09:32:50.648Z,1011.36
2017-11-13T09:33:50.622Z,1011.34
2017-11-13T09:34:50.594Z,1011.33
2017-11-13T09:35:50.573Z,1011.35
2017-11-13T09:36:50.549Z,1011.33
2017-11-13T09:37:50.527Z,1011.31
2017-11-13T09:38:50.496Z,1011.29
2017-11-13T09:39:50.472Z,1011.28
2017-11-13T09:40:50.448Z,1011.34
2017-11-13T09:41:50.427Z,1011.30
2017-11-13T09:42:50.400Z,1011.41
2017-11-13T09:43:50.381Z,1011.36
2017-11-13T09:44:50.353Z,1011.36
2017-11-13T09:45:50.346Z,1011.36
2017-11-13T09:46:50.304Z,1011.49
2017-11-13T09:47:50.288Z,1011.47
2017-11-13T09:48:50.252Z,1011.47
2017-11-13T09:49:50.232Z,1011.54
2017-11-13T09:50:50.204Z,1011.54
2017-11-13T09:51:50.177Z,1011.54
2017-11-13T09:52:50.164Z,1011.59
2017-11-13T09:53:50.129Z,1011.57
2017-11-13T09:54:50.098Z,1011.60
2017-11-13T09:55:50.079Z,1011.60
2017-11-13T09:56:50.056Z,1011.63
2017-11-13T09:57:50.029Z,1011.62
2017-11-13T09:58:50.007Z,1011.62
2017-11-13T09:59:49.982Z,1011.61
2017-11-13T10:00:49.958Z,1011.56
2017-11-13T10:01:49.935Z,1011.56
2017-11-13T10:02:49.917Z,1011.55
2017-11-13T10:03:49.891Z,1011.55
2017-11-13T10:04:49.873Z,1011.56
2017-11-13T10:05:49.833Z,1011.54
2017-11-13T10:06:49.809Z,1011.59
2017-11-13T10:07:49.784Z,1011.60
2017-11-13T10:08:49.764Z,1011.64
2017-11-13T10:09:49.738Z,1011.59
2017-11-13T10:10:49.718Z,1011.64
2017-11-13T10:11:49.693Z,1011.65
2017-11-13T10:12:49.661Z,1011.65
2017-11-13T10:13:49.645Z,1011.67
2017-11-13T10:14:49.623Z,1011.69
2017-11-13T10:15:49.600Z,1011.81
2017-11-13T10:16:49.565Z,1011.78
2017-11-13T10:17:49.547Z,1011.81
2017-11-13T10:18:49.524Z,1011.85
2017-11-13T10:19:49.497Z,1011.86
2017-11-13T10:20:49.478Z,1011.89
2017-11-13T10:21:49.452Z,1011.86
2017-11-13T10:22:49.431Z,1011.91
2017-11-13T10:23:49.410Z,1012.00
2017-11-13T10:24:49.378Z,1012.04
2017-11-13T10:25:49.360Z,1012.07
2017-11-13T10:26:49.332Z,1012.10
2017-11-13T10:27:49.313Z,1012.12
2017-11-13T10:28:49.292Z,1012.19
2017-11-13T10:29:49.271Z,1012.25
2017-11-13T10:30:49.247Z,1012.28
2017-11-13T10:31:49.218Z,1012.33
2017-11-13T10:32:49.193Z,1012.35
2017-11-13T10:33:49.169Z,1012.31
2017-11-13T10:34:49.152Z,1012.38
2017-11-13T10:35:49.127Z,1012.40
2017-11-13T10:36:49.107Z,1012.40
2017-11-13T10:37:49.080Z,1012.38
2017-11-13T10:38:49.066Z,1012.47
2017-11-13T10:39:49.037Z,1012.32
2017-11-13T10:40:49.009Z,1012.34
2017-11-13T10:41:48.990Z,1012.37
2017-11-13T10:42:48.966Z,1012.42
2017-11-13T10:43:48.939Z,1012.44
2017-11-13T10:44:48.916Z,1012.47
2017-11-13T10:45:48.950Z,1012.65
2017-11-13T10:46:48.872Z,1012.91
2017-11-13T10:47:48.857Z,1013.08
2017-11-13T10:48:48.855Z,1013.20
2017-11-13T10:49:48.807Z,1013.22
2017-11-13T10:50:48.794Z,1013.21
2017-11-13T10:51:48.769Z,1013.23
2017-11-13T10:52:48.755Z,1013.19
2017-11-13T10:53:48.729Z,1013.25
2017-11-13T10:54:48.696Z,1013.21
2017-11-13T10:55:48.678Z,1013.21
2017-11-13T10:56:48.661Z,1013.16
2017-11-13T10:57:48.632Z,1013.17
2017-11-13T10:58:48.603Z,1013.18
2017-11-13T10:59:48.587Z,1013.22
2017-11-13T11:00:48.572Z,1013.16
2017-11-13T11:01:48.539Z,1013.15
2017-11-13T11:02:48.877Z,1013.12
2017-11-13T11:03:48.497Z,1013.08
2017-11-13T11:04:48.482Z,1013.11
2017-11-13T11:05:48.455Z,1013.13
2017-11-13T11:06:48.425Z,1013.19
2017-11-13T11:07:48.414Z,1013.16
2017-11-13T11:08:48.693Z,1013.14
2017-11-13T11:09:48.364Z,1013.19
2017-11-13T11:10:48.343Z,1013.22
2017-11-13T11:11:48.318Z,1013.17
2017-11-13T11:12:48.324Z,1013.20
2017-11-13T11:13:48.327Z,1013.16
2017-11-13T11:14:48.252Z,1013.15
2017-11-13T11:15:48.264Z,1013.16
2017-11-13T11:16:48.212Z,1013.14
2017-11-13T11:17:48.202Z,1013.18
2017-11-13T11:18:48.169Z,1013.19
2017-11-13T11:19:48.164Z,1013.18
2017-11-13T11:20:48.319Z,1013.14
2017-11-13T11:21:48.104Z,1013.16
2017-11-13T11:22:48.075Z,1013.13
2017-11-13T11:23:48.059Z,1013.17
2017-11-13T11:24:48.044Z,1013.16
2017-11-13T11:25:48.012Z,1013.14
2017-11-13T11:26:47.987Z,1013.18
2017-11-13T11:27:47.979Z,1013.17
2017-11-13T11:28:47.943Z,1013.27
2017-11-13T11:29:47.918Z,1013.23
2017-11-13T11:30:47.898Z,1013.23
2017-11-13T11:31:47.873Z,1013.24
2017-11-13T11:32:47.852Z,1013.26
2017-11-13T11:33:47.827Z,1013.26
2017-11-13T11:34:47.803Z,1013.26
2017-11-13T11:35:47.804Z,1012.85
2017-11-13T11:36:47.762Z,1013.31
2017-11-13T11:37:47.739Z,1013.18
2017-11-13T11:38:47.711Z,1013.26
2017-11-13T11:39:47.688Z,1013.21
2017-11-13T11:40:47.672Z,1013.19
2017-11-13T11:41:47.646Z,1013.23
2017-11-13T11:42:47.621Z,1013.23
2017-11-13T11:43:47.603Z,1013.24
2017-11-13T11:44:47.574Z,1013.22
2017-11-13T11:45:47.559Z,1013.19
2017-11-13T11:46:47.536Z,1013.23
2017-11-13T11:47:47.509Z,1013.25
2017-11-13T11:48:47.493Z,1013.24
2017-11-13T11:49:47.471Z,1013.18
2017-11-13T11:50:47.444Z,1013.24
2017-11-13T11:51:47.418Z,1013.29
2017-11-13T11:52:47.414Z,1013.22
2017-11-13T11:53:47.377Z,1013.27
2017-11-13T11:54:47.356Z,1013.27
2017-11-13T11:55:47.329Z,1013.24
2017-11-13T11:56:47.309Z,1013.26
2017-11-13T11:57:47.289Z,1013.30
2017-11-13T11:58:47.261Z,1013.30
2017-11-13T11:59:47.249Z,1013.34
2017-11-13T12:00:47.225Z,1013.36
2017-11-13T12:01:47.195Z,1013.31
2017-11-13T12:02:47.180Z,1013.34
2017-11-13T12:03:47.155Z,1013.37
2017-11-13T12:04:47.129Z,1013.34